Time,TemperatureF,DewpointF,PressureIn,WindDirection,WindDirectionDegrees,WindSpeedMPH,WindSpeedGustMPH,Humidity,HourlyPrecipIn,Conditions,Clouds,dailyrainin,SolarRadiationWatts/m^2,SoftwareType,DateUTC
2013-01-23 00:12:00,56.0,53.0,-100.00,NW,325,7.0,9.0,89,0.00,,,-99.99,0.000000,,2013-01-23 10:12:00,
2013-01-23 00:22:00,56.0,53.0,-100.00,NW,325,7.0,9.0,89,0.00,,,-99.99,0.000000,,2013-01-23 10:22:00,
2013-01-23 00:32:00,56.0,53.0,-100.00,NW,325,7.0,9.0,89,0.00,,,-99.99,0.000000,,2013-01-23 10:32:00,
2013-01-23 00:42:00,56.0,53.0,-100.00,NW,325,7.0,9.0,89,0.00,,,-99.99,0.000000,,2013-01-23 10:42:00,
2013-01-23 01:12:00,56.0,54.0,-100.00,North,358,4.0,9.0,92,0.00,,,0.00,0.000000,,2013-01-23 11:12:00,
2013-01-23 01:22:00,56.0,54.0,-100.00,North,358,4.0,9.0,92,0.00,,,0.00,0.000000,,2013-01-23 11:22:00,
2013-01-23 01:33:00,56.0,54.0,-100.00,North,358,4.0,9.0,92,0.00,,,0.00,0.000000,,2013-01-23 11:33:00,
2013-01-23 01:42:00,56.0,54.0,-100.00,North,358,4.0,9.0,92,0.00,,,0.00,0.000000,,2013-01-23 11:42:00,
2013-01-23 02:12:00,54.0,51.0,-100.00,North,7,5.0,8.0,91,0.00,,,0.00,0.000000,,2013-01-23 12:12:00,
2013-01-23 02:22:00,54.0,51.0,-100.00,North,7,5.0,8.0,91,0.00,,,0.00,0.000000,,2013-01-23 12:22:00,
2013-01-23 02:33:00,54.0,51.0,-100.00,North,7,5.0,8.0,91,0.00,,,0.00,0.000000,,2013-01-23 12:33:00,
2013-01-23 02:42:00,54.0,51.0,-100.00,North,7,5.0,8.0,91,0.00,,,0.00,0.000000,,2013-01-23 12:42:00,
2013-01-23 03:12:00,54.0,52.0,-100.00,NNW,338,6.0,9.0,93,0.00,,,0.00,0.000000,,2013-01-23 13:12:00,
2013-01-23 03:23:00,54.0,52.0,-100.00,NNW,338,6.0,9.0,93,0.00,,,0.00,0.000000,,2013-01-23 13:23:00,
2013-01-23 03:33:00,54.0,52.0,-100.00,NNW,338,6.0,9.0,93,0.00,,,0.00,0.000000,,2013-01-23 13:33:00,
2013-01-23 03:42:00,54.0,52.0,-100.00,NNW,338,6.0,9.0,93,0.00,,,0.00,0.000000,,2013-01-23 13:42:00,
2013-01-23 05:12:00,52.0,50.0,-100.00,North,358,4.0,9.0,93,-99.99,,,0.00,0.000000,,2013-01-23 15:12:00,
2013-01-23 05:22:00,52.0,50.0,-100.00,North,358,4.0,9.0,93,-99.99,,,0.00,0.000000,,2013-01-23 15:22:00,
2013-01-23 05:33:00,52.0,50.0,-100.00,North,358,4.0,9.0,93,-99.99,,,0.00,0.000000,,2013-01-23 15:33:00,
2013-01-23 05:43:00,52.0,50.0,-100.00,North,358,4.0,9.0,93,-99.99,,,0.00,0.000000,,2013-01-23 15:43:00,
2013-01-23 06:03:00,53.0,51.0,-100.00,NNE,19,4.0,9.0,92,0.00,,,0.00,0.000000,,2013-01-23 16:03:00,
2013-01-23 06:12:00,53.0,51.0,-100.00,NNE,19,4.0,9.0,92,0.00,,,0.00,0.000000,,2013-01-23 16:12:00,
2013-01-23 06:22:00,53.0,51.0,-100.00,NNE,19,4.0,9.0,92,0.00,,,0.00,0.000000,,2013-01-23 16:22:00,
2013-01-23 06:32:00,53.0,51.0,-100.00,NNE,19,4.0,9.0,92,0.00,,,0.00,0.000000,,2013-01-23 16:32:00,
2013-01-23 06:42:00,53.0,51.0,-100.00,NNE,19,4.0,9.0,92,0.00,,,0.00,0.000000,,2013-01-23 16:42:00,
2013-01-23 07:12:00,52.0,50.0,-100.00,NW,323,7.0,8.0,92,0.00,,,0.00,0.000000,,2013-01-23 17:12:00,
2013-01-23 07:22:00,52.0,50.0,-100.00,NW,323,7.0,8.0,92,0.00,,,0.00,0.000000,,2013-01-23 17:22:00,
2013-01-23 07:33:00,52.0,50.0,-100.00,NW,323,7.0,8.0,92,0.00,,,0.00,0.000000,,2013-01-23 17:33:00,
2013-01-23 07:42:00,52.0,50.0,-100.00,NW,323,7.0,8.0,92,0.00,,,0.00,0.000000,,2013-01-23 17:42:00,
2013-01-23 08:12:00,56.0,53.0,-100.00,North,351,4.0,8.0,91,0.00,,,0.00,55.000000,,2013-01-23 18:12:00,
2013-01-23 08:23:00,56.0,53.0,-100.00,North,351,4.0,8.0,91,0.00,,,0.00,55.000000,,2013-01-23 18:23:00,
2013-01-23 08:33:00,56.0,53.0,-100.00,North,351,4.0,8.0,91,0.00,,,0.00,55.000000,,2013-01-23 18:33:00,
2013-01-23 08:43:00,56.0,53.0,-100.00,North,351,4.0,8.0,91,0.00,,,0.00,55.000000,,2013-01-23 18:43:00,
2013-01-23 09:12:00,67.0,57.0,-100.00,West,261,3.0,6.0,71,0.00,,,0.00,252.000000,,2013-01-23 19:12:00,
2013-01-23 09:22:00,67.0,57.0,-100.00,West,261,3.0,6.0,71,0.00,,,0.00,252.000000,,2013-01-23 19:22:00,
2013-01-23 09:33:00,67.0,57.0,-100.00,West,261,3.0,6.0,71,0.00,,,0.00,252.000000,,2013-01-23 19:33:00,
2013-01-23 09:42:00,67.0,57.0,-100.00,West,261,3.0,6.0,71,0.00,,,0.00,252.000000,,2013-01-23 19:42:00,
2013-01-23 10:12:00,72.0,58.0,-100.00,SSE,157,4.0,7.0,62,0.00,,,0.00,454.000000,,2013-01-23 20:12:00,
2013-01-23 10:23:00,72.0,58.0,-100.00,SSE,157,4.0,7.0,62,0.00,,,0.00,454.000000,,2013-01-23 20:23:00,
2013-01-23 10:32:00,72.0,58.0,-100.00,SSE,157,4.0,7.0,62,0.00,,,0.00,454.000000,,2013-01-23 20:32:00,
2013-01-23 10:42:00,72.0,58.0,-100.00,SSE,157,4.0,7.0,62,0.00,,,0.00,454.000000,,2013-01-23 20:42:00,
2013-01-23 11:12:00,72.0,60.0,-100.00,ESE,116,10.0,17.0,65,0.00,,,0.00,563.000000,,2013-01-23 21:12:00,
2013-01-23 11:22:00,72.0,60.0,-100.00,ESE,116,10.0,17.0,65,0.00,,,0.00,563.000000,,2013-01-23 21:22:00,
2013-01-23 11:33:00,72.0,60.0,-100.00,ESE,116,10.0,17.0,65,0.00,,,0.00,563.000000,,2013-01-23 21:33:00,
2013-01-23 11:42:00,72.0,60.0,-100.00,ESE,116,10.0,17.0,65,0.00,,,0.00,563.000000,,2013-01-23 21:42:00,
2013-01-23 12:12:00,71.0,63.0,-100.00,ESE,104,10.0,20.0,75,0.00,,,-99.99,776.000000,,2013-01-23 22:12:00,
2013-01-23 12:22:00,71.0,63.0,-100.00,ESE,104,10.0,20.0,75,0.00,,,-99.99,776.000000,,2013-01-23 22:22:00,
2013-01-23 12:33:00,71.0,63.0,-100.00,ESE,104,10.0,20.0,75,0.00,,,-99.99,776.000000,,2013-01-23 22:33:00,
2013-01-23 12:42:00,71.0,63.0,-100.00,ESE,104,10.0,20.0,75,0.00,,,-99.99,776.000000,,2013-01-23 22:42:00,
2013-01-23 13:12:00,69.0,60.0,-100.00,ESE,113,7.0,16.0,72,0.00,,,0.00,457.000000,,2013-01-23 23:12:00,
2013-01-23 13:22:00,69.0,60.0,-100.00,ESE,113,7.0,16.0,72,0.00,,,0.00,457.000000,,2013-01-23 23:22:00,
2013-01-23 13:33:00,69.0,60.0,-100.00,ESE,113,7.0,16.0,72,0.00,,,0.00,457.000000,,2013-01-23 23:33:00,
2013-01-23 13:42:00,69.0,60.0,-100.00,ESE,113,7.0,16.0,72,0.00,,,0.00,457.000000,,2013-01-23 23:42:00,
2013-01-23 14:12:00,68.0,61.0,-100.00,East,93,6.0,16.0,78,0.00,,,0.00,127.000000,,2013-01-24 00:12:00,
2013-01-23 14:22:00,68.0,61.0,-100.00,East,93,6.0,16.0,78,0.00,,,0.00,127.000000,,2013-01-24 00:22:00,
2013-01-23 14:32:00,68.0,61.0,-100.00,East,93,6.0,16.0,78,0.00,,,0.00,127.000000,,2013-01-24 00:32:00,
2013-01-23 14:42:00,68.0,61.0,-100.00,East,93,6.0,16.0,78,0.00,,,0.00,127.000000,,2013-01-24 00:42:00,
2013-01-23 15:12:00,67.0,61.0,-100.00,ESE,105,6.0,13.0,81,0.00,,,0.00,117.000000,,2013-01-24 01:12:00,
2013-01-23 15:22:00,67.0,61.0,-100.00,ESE,105,6.0,13.0,81,0.00,,,0.00,117.000000,,2013-01-24 01:22:00,
2013-01-23 15:33:00,67.0,61.0,-100.00,ESE,105,6.0,13.0,81,0.00,,,0.00,117.000000,,2013-01-24 01:33:00,
2013-01-23 15:42:00,67.0,61.0,-100.00,ESE,105,6.0,13.0,81,0.00,,,0.00,117.000000,,2013-01-24 01:42:00,
2013-01-23 16:12:00,67.0,62.0,-100.00,East,101,6.0,14.0,83,0.00,,,0.00,100.000000,,2013-01-24 02:12:00,
2013-01-23 16:22:00,67.0,62.0,-100.00,East,101,6.0,14.0,83,0.00,,,0.00,100.000000,,2013-01-24 02:22:00,
2013-01-23 16:32:00,67.0,62.0,-100.00,East,101,6.0,14.0,83,0.00,,,0.00,100.000000,,2013-01-24 02:32:00,
2013-01-23 16:42:00,67.0,62.0,-100.00,East,101,6.0,14.0,83,0.00,,,0.00,100.000000,,2013-01-24 02:42:00,
2013-01-23 18:12:00,66.0,61.0,-100.00,ENE,69,4.0,11.0,83,-99.99,,,0.00,28.000000,,2013-01-24 04:12:00,
2013-01-23 18:22:00,66.0,61.0,-100.00,ENE,69,4.0,11.0,83,-99.99,,,0.00,28.000000,,2013-01-24 04:22:00,
2013-01-23 18:32:00,66.0,61.0,-100.00,ENE,69,4.0,11.0,83,-99.99,,,0.00,28.000000,,2013-01-24 04:32:00,
2013-01-23 18:42:00,66.0,61.0,-100.00,ENE,69,4.0,11.0,83,-99.99,,,0.00,28.000000,,2013-01-24 04:42:00,
2013-01-23 19:12:00,65.0,61.0,-100.00,NE,52,3.0,11.0,87,0.00,,,0.00,2.000000,,2013-01-24 05:12:00,
2013-01-23 19:22:00,65.0,61.0,-100.00,NE,52,3.0,11.0,87,0.00,,,0.00,2.000000,,2013-01-24 05:22:00,
2013-01-23 19:32:00,65.0,61.0,-100.00,NE,52,3.0,11.0,87,0.00,,,0.00,2.000000,,2013-01-24 05:32:00,
2013-01-23 19:42:00,65.0,61.0,-100.00,NE,52,3.0,11.0,87,0.00,,,0.00,2.000000,,2013-01-24 05:42:00,
2013-01-23 20:12:00,65.0,59.0,-100.00,East,79,3.0,7.0,82,0.00,,,0.00,0.000000,,2013-01-24 06:12:00,
2013-01-23 20:22:00,65.0,59.0,-100.00,East,79,3.0,7.0,82,0.00,,,0.00,0.000000,,2013-01-24 06:22:00,
2013-01-23 20:32:00,65.0,59.0,-100.00,East,79,3.0,7.0,82,0.00,,,0.00,0.000000,,2013-01-24 06:32:00,
2013-01-23 20:42:00,65.0,59.0,-100.00,East,79,3.0,7.0,82,0.00,,,0.00,0.000000,,2013-01-24 06:42:00,
2013-01-23 21:12:00,64.0,60.0,-100.00,NNE,23,4.0,6.0,88,0.00,,,0.00,0.000000,,2013-01-24 07:12:00,
2013-01-23 21:22:00,64.0,60.0,-100.00,NNE,23,4.0,6.0,88,0.00,,,0.00,0.000000,,2013-01-24 07:22:00,
2013-01-23 21:32:00,64.0,60.0,-100.00,NNE,23,4.0,6.0,88,0.00,,,0.00,0.000000,,2013-01-24 07:32:00,
2013-01-23 21:42:00,64.0,60.0,-100.00,NNE,23,4.0,6.0,88,0.00,,,0.00,0.000000,,2013-01-24 07:42:00,
2013-01-23 22:12:00,64.0,59.0,-100.00,North,4,4.0,6.0,84,0.00,,,0.00,0.000000,,2013-01-24 08:12:00,
2013-01-23 22:22:00,64.0,59.0,-100.00,North,4,4.0,6.0,84,0.00,,,0.00,0.000000,,2013-01-24 08:22:00,
2013-01-23 22:32:00,64.0,59.0,-100.00,North,4,4.0,6.0,84,0.00,,,0.00,0.000000,,2013-01-24 08:32:00,
2013-01-23 22:42:00,64.0,59.0,-100.00,North,4,4.0,6.0,84,0.00,,,0.00,0.000000,,2013-01-24 08:42:00,
2013-01-23 23:12:00,63.0,58.0,-100.00,NE,56,2.0,4.0,85,0.00,,,0.00,0.000000,,2013-01-24 09:12:00,
2013-01-23 23:22:00,63.0,58.0,-100.00,NE,56,2.0,4.0,85,0.00,,,0.00,0.000000,,2013-01-24 09:22:00,
2013-01-23 23:32:00,63.0,58.0,-100.00,NE,56,2.0,4.0,85,0.00,,,0.00,0.000000,,2013-01-24 09:32:00,
2013-01-23 23:42:00,63.0,58.0,-100.00,NE,56,2.0,4.0,85,0.00,,,0.00,0.000000,,2013-01-24 09:42:00,